Time,TemperatureF,DewpointF,PressureIn,WindDirection,WindDirectionDegrees,WindSpeedMPH,WindSpeedGustMPH,Humidity,HourlyPrecipIn,Conditions,Clouds,dailyrainin,SolarRadiationWatts/m^2,SoftwareType,DateUTC
2013-09-04 00:02:00,53.9,51.6,30.02,North,0,0.0,4.0,92,0.00,,,0.00,0,Wunderground v.1.15,2013-09-04 07:02:00,
2013-09-04 00:07:00,53.8,51.5,30.03,North,0,0.0,4.0,92,0.00,,,0.00,0,Wunderground v.1.15,2013-09-04 07:07:00,
2013-09-04 00:12:00,53.6,51.3,30.03,North,0,0.0,3.0,92,0.00,,,0.00,0,Wunderground v.1.15,2013-09-04 07:12:00,
2013-09-04 00:22:00,52.9,51.2,30.02,North,0,0.0,3.0,94,0.00,,,0.00,0,Wunderground v.1.15,2013-09-04 07:22:00,
2013-09-04 00:32:00,52.5,50.8,30.02,North,0,2.0,3.0,94,0.00,,,0.00,0,Wunderground v.1.15,2013-09-04 07:32:00,
2013-09-04 00:42:00,52.2,50.5,30.02,North,0,3.0,4.0,94,0.00,,,0.00,0,Wunderground v.1.15,2013-09-04 07:42:00,
2013-09-04 00:52:00,52.1,50.4,30.02,North,0,2.0,4.0,94,0.00,,,0.00,0,Wunderground v.1.15,2013-09-04 07:52:00,
2013-09-04 01:02:00,51.7,50.0,30.02,North,0,0.0,4.0,94,0.00,,,0.00,0,Wunderground v.1.15,2013-09-04 08:02:00,
2013-09-04 01:07:00,51.5,50.1,30.02,North,0,0.0,5.0,95,0.00,,,0.00,0,Wunderground v.1.15,2013-09-04 08:07:00,
2013-09-04 01:12:00,51.3,49.9,30.02,North,0,0.0,5.0,95,0.00,,,0.00,0,Wunderground v.1.15,2013-09-04 08:12:00,
2013-09-04 01:22:00,50.2,49.4,30.02,North,0,0.0,5.0,97,0.00,,,0.00,0,Wunderground v.1.15,2013-09-04 08:22:00,
2013-09-04 01:32:00,50.0,49.2,30.02,North,0,0.0,5.0,97,0.00,,,0.00,0,Wunderground v.1.15,2013-09-04 08:32:00,
2013-09-04 01:42:00,49.6,48.8,30.02,North,0,0.0,5.0,97,0.00,,,0.00,0,Wunderground v.1.15,2013-09-04 08:42:00,
2013-09-04 01:52:00,49.3,48.8,30.02,North,0,0.0,3.0,98,0.00,,,0.00,0,Wunderground v.1.15,2013-09-04 08:52:00,
2013-09-04 02:02:00,49.2,48.7,30.02,North,0,0.0,3.0,98,0.00,,,0.00,0,Wunderground v.1.15,2013-09-04 09:02:00,
2013-09-04 02:07:00,48.9,48.4,30.03,North,0,0.0,3.0,98,0.00,,,0.00,0,Wunderground v.1.15,2013-09-04 09:07:00,
2013-09-04 02:12:00,48.5,48.2,30.03,North,0,1.0,2.0,99,0.00,,,0.00,0,Wunderground v.1.15,2013-09-04 09:12:00,
2013-09-04 02:22:00,48.2,47.9,30.02,North,0,0.0,2.0,99,0.00,,,0.00,0,Wunderground v.1.15,2013-09-04 09:22:00,
2013-09-04 02:32:00,47.7,47.7,30.02,North,0,0.0,2.0,100,0.00,,,0.00,0,Wunderground v.1.15,2013-09-04 09:32:00,
2013-09-04 02:42:00,47.3,47.3,30.02,North,0,0.0,2.0,100,0.00,,,0.00,0,Wunderground v.1.15,2013-09-04 09:42:00,
2013-09-04 02:52:00,47.1,47.1,30.02,North,0,0.0,2.0,100,0.00,,,0.00,0,Wunderground v.1.15,2013-09-04 09:52:00,
2013-09-04 03:02:00,46.9,46.9,30.02,North,0,0.0,2.0,100,0.00,,,0.00,0,Wunderground v.1.15,2013-09-04 10:02:00,
2013-09-04 03:07:00,46.8,46.8,30.02,North,0,0.0,2.0,100,0.00,,,0.00,0,Wunderground v.1.15,2013-09-04 10:07:00,
2013-09-04 03:12:00,46.7,46.7,30.03,North,0,0.0,0.0,100,0.00,,,0.00,0,Wunderground v.1.15,2013-09-04 10:12:00,
2013-09-04 03:22:00,46.1,46.1,30.03,North,0,0.0,0.0,100,0.00,,,0.00,0,Wunderground v.1.15,2013-09-04 10:22:00,
2013-09-04 03:32:00,45.7,45.7,30.02,North,0,0.0,0.0,100,0.00,,,0.00,0,Wunderground v.1.15,2013-09-04 10:32:00,
2013-09-04 03:42:00,45.4,45.4,30.02,North,0,1.0,1.0,100,0.00,,,0.00,0,Wunderground v.1.15,2013-09-04 10:42:00,
2013-09-04 03:52:00,45.2,45.2,30.03,North,0,0.0,0.0,100,0.00,,,0.00,0,Wunderground v.1.15,2013-09-04 10:52:00,
2013-09-04 04:02:00,45.0,45.0,30.03,North,0,0.0,0.0,100,0.00,,,0.00,0,Wunderground v.1.15,2013-09-04 11:02:00,
2013-09-04 04:07:00,44.9,44.9,30.03,North,0,0.0,3.0,100,0.00,,,0.00,0,Wunderground v.1.15,2013-09-04 11:07:00,
2013-09-04 04:12:00,44.8,44.8,30.02,North,0,0.0,3.0,100,0.00,,,0.00,0,Wunderground v.1.15,2013-09-04 11:12:00,
2013-09-04 04:22:00,44.6,44.6,30.02,North,0,0.0,3.0,100,0.00,,,0.00,0,Wunderground v.1.15,2013-09-04 11:22:00,
2013-09-04 04:32:00,44.1,44.1,30.03,North,0,2.0,3.0,100,0.00,,,0.00,0,Wunderground v.1.15,2013-09-04 11:32:00,
2013-09-04 04:42:00,43.9,43.9,30.02,North,0,0.0,2.0,100,0.00,,,0.00,0,Wunderground v.1.15,2013-09-04 11:42:00,
2013-09-04 04:52:00,43.8,43.8,30.02,North,0,0.0,2.0,100,0.00,,,0.00,0,Wunderground v.1.15,2013-09-04 11:52:00,
2013-09-04 05:02:00,43.4,43.4,30.03,North,0,0.0,2.0,100,0.00,,,0.00,0,Wunderground v.1.15,2013-09-04 12:02:00,
2013-09-04 05:07:00,43.3,43.3,30.03,North,0,0.0,2.0,100,0.00,,,0.00,0,Wunderground v.1.15,2013-09-04 12:07:00,
2013-09-04 05:12:00,43.2,43.2,30.02,North,0,0.0,2.0,100,0.00,,,0.00,0,Wunderground v.1.15,2013-09-04 12:12:00,
2013-09-04 05:22:00,43.0,43.0,30.03,North,0,0.0,2.0,100,0.00,,,0.00,0,Wunderground v.1.15,2013-09-04 12:22:00,
2013-09-04 05:32:00,43.1,43.1,30.03,North,0,0.0,2.0,100,0.00,,,0.00,0,Wunderground v.1.15,2013-09-04 12:32:00,
2013-09-04 05:42:00,43.1,43.1,30.03,North,0,0.0,0.0,100,0.00,,,0.00,0,Wunderground v.1.15,2013-09-04 12:42:00,
2013-09-04 05:52:00,42.5,42.5,30.02,North,0,0.0,0.0,100,0.00,,,0.00,0,Wunderground v.1.15,2013-09-04 12:52:00,
2013-09-04 06:02:00,42.2,42.2,30.02,North,0,0.0,0.0,100,0.00,,,0.00,0,Wunderground v.1.15,2013-09-04 13:02:00,
2013-09-04 06:12:00,42.0,42.0,30.03,North,0,0.0,0.0,100,0.00,,,0.00,0,Wunderground v.1.15,2013-09-04 13:12:00,
2013-09-04 06:22:00,42.1,42.1,30.03,North,0,0.0,0.0,100,0.00,,,0.00,0,Wunderground v.1.15,2013-09-04 13:22:00,
2013-09-04 06:32:00,42.1,42.1,30.03,North,0,0.0,0.0,100,0.00,,,0.00,0,Wunderground v.1.15,2013-09-04 13:32:00,
2013-09-04 06:42:00,41.7,41.7,30.03,North,0,1.0,1.0,100,0.00,,,0.00,0,Wunderground v.1.15,2013-09-04 13:42:00,
2013-09-04 06:52:00,42.0,42.0,30.03,North,0,0.0,0.0,100,0.00,,,0.00,0,Wunderground v.1.15,2013-09-04 13:52:00,
2013-09-04 07:02:00,43.1,43.1,30.03,North,0,0.0,0.0,100,0.00,,,0.00,0,Wunderground v.1.15,2013-09-04 14:02:00,
2013-09-04 07:07:00,43.5,43.5,30.03,North,0,0.0,3.0,100,0.00,,,0.00,0,Wunderground v.1.15,2013-09-04 14:07:00,
2013-09-04 07:12:00,44.1,44.1,30.03,North,0,0.0,3.0,100,0.00,,,0.00,0,Wunderground v.1.15,2013-09-04 14:12:00,
2013-09-04 07:22:00,45.6,45.1,30.04,North,0,0.0,3.0,98,0.00,,,0.00,0,Wunderground v.1.15,2013-09-04 14:22:00,
2013-09-04 07:32:00,47.1,46.6,30.04,North,0,0.0,3.0,98,0.00,,,0.00,0,Wunderground v.1.15,2013-09-04 14:32:00,
2013-09-04 07:47:00,48.6,47.5,30.03,North,0,0.0,0.0,96,0.00,,,0.00,0,Wunderground v.1.15,2013-09-04 14:47:00,
2013-09-04 07:52:00,50.1,48.4,30.03,North,0,0.0,0.0,94,0.00,,,0.00,0,Wunderground v.1.15,2013-09-04 14:52:00,
2013-09-04 08:02:00,52.4,49.3,30.04,North,0,0.0,0.0,89,0.00,,,0.00,0,Wunderground v.1.15,2013-09-04 15:02:00,
2013-09-04 08:12:00,53.0,49.5,30.03,North,0,0.0,0.0,88,0.00,,,0.00,0,Wunderground v.1.15,2013-09-04 15:12:00,
2013-09-04 08:22:00,55.1,51.0,30.04,North,0,0.0,0.0,86,0.00,,,0.00,0,Wunderground v.1.15,2013-09-04 15:22:00,
2013-09-04 08:32:00,57.1,52.3,30.04,North,0,0.0,0.0,84,0.00,,,0.00,0,Wunderground v.1.15,2013-09-04 15:32:00,
2013-09-04 08:42:00,58.7,53.5,30.04,North,0,0.0,0.0,83,0.00,,,0.00,0,Wunderground v.1.15,2013-09-04 15:42:00,
2013-09-04 08:52:00,59.2,54.4,30.04,WSW,256,0.0,0.0,84,0.00,,,0.00,0,Wunderground v.1.15,2013-09-04 15:52:00,
2013-09-04 09:02:00,59.8,55.0,30.04,North,0,0.0,0.0,84,0.00,,,0.00,0,Wunderground v.1.15,2013-09-04 16:02:00,
2013-09-04 09:07:00,60.4,55.9,30.04,West,281,0.0,0.0,85,0.00,,,0.00,0,Wunderground v.1.15,2013-09-04 16:07:00,
2013-09-04 09:12:00,61.3,56.4,30.04,North,0,0.0,0.0,84,0.00,,,0.00,0,Wunderground v.1.15,2013-09-04 16:12:00,
2013-09-04 09:22:00,62.8,56.5,30.04,North,0,0.0,0.0,80,0.00,,,0.00,0,Wunderground v.1.15,2013-09-04 16:22:00,
2013-09-04 09:32:00,64.4,57.0,30.04,North,9,0.0,0.0,77,0.00,,,0.00,0,Wunderground v.1.15,2013-09-04 16:32:00,
2013-09-04 09:42:00,65.1,57.3,30.04,East,83,5.0,5.0,76,0.00,,,0.00,0,Wunderground v.1.15,2013-09-04 16:42:00,
2013-09-04 09:52:00,65.8,57.7,30.04,ENE,69,2.0,5.0,75,0.00,,,0.00,0,Wunderground v.1.15,2013-09-04 16:52:00,
2013-09-04 10:02:00,66.1,57.2,30.04,East,87,3.0,4.0,73,0.00,,,0.00,0,Wunderground v.1.15,2013-09-04 17:02:00,
2013-09-04 10:12:00,67.0,56.9,30.04,East,93,3.0,7.0,70,0.00,,,0.00,0,Wunderground v.1.15,2013-09-04 17:12:00,
2013-09-04 10:22:00,67.0,56.5,30.04,ENE,59,1.0,7.0,69,0.00,,,0.00,0,Wunderground v.1.15,2013-09-04 17:22:00,
2013-09-04 10:32:00,68.1,56.3,30.03,SSE,166,1.0,7.0,66,0.00,,,0.00,0,Wunderground v.1.15,2013-09-04 17:32:00,
2013-09-04 10:42:00,68.8,56.6,30.03,ENE,64,4.0,8.0,65,0.00,,,0.00,0,Wunderground v.1.15,2013-09-04 17:42:00,
2013-09-04 10:52:00,69.7,56.5,30.03,SSE,151,3.0,8.0,63,0.00,,,0.00,0,Wunderground v.1.15,2013-09-04 17:52:00,
2013-09-04 11:02:00,70.9,56.8,30.03,SSW,192,1.0,8.0,61,0.00,,,0.00,0,Wunderground v.1.15,2013-09-04 18:02:00,
2013-09-04 11:07:00,71.0,56.4,30.03,SSE,161,4.0,8.0,60,0.00,,,0.00,0,Wunderground v.1.15,2013-09-04 18:07:00,
2013-09-04 11:12:00,71.2,56.6,30.03,NNW,335,3.0,8.0,60,0.00,,,0.00,0,Wunderground v.1.15,2013-09-04 18:12:00,
2013-09-04 11:22:00,71.3,56.2,30.03,North,0,0.0,8.0,59,0.00,,,0.00,0,Wunderground v.1.15,2013-09-04 18:22:00,
2013-09-04 11:32:00,72.2,56.1,30.03,North,0,2.0,8.0,57,0.00,,,0.00,0,Wunderground v.1.15,2013-09-04 18:32:00,
2013-09-04 11:42:00,73.0,55.4,30.02,North,0,4.0,7.0,54,0.00,,,0.00,0,Wunderground v.1.15,2013-09-04 18:42:00,
2013-09-04 11:52:00,74.4,54.0,30.02,NE,53,9.0,9.0,49,0.00,,,0.00,0,Wunderground v.1.15,2013-09-04 18:52:00,
2013-09-04 12:02:00,74.3,53.3,30.02,East,79,1.0,7.0,48,0.00,,,0.00,0,Wunderground v.1.15,2013-09-04 19:02:00,
2013-09-04 12:12:00,75.2,53.0,30.02,NE,46,6.0,14.0,46,0.00,,,0.00,0,Wunderground v.1.15,2013-09-04 19:12:00,
2013-09-04 12:22:00,75.3,52.5,30.02,East,99,3.0,14.0,45,0.00,,,0.00,0,Wunderground v.1.15,2013-09-04 19:22:00,
2013-09-04 12:32:00,75.6,51.5,30.01,East,85,6.0,14.0,43,0.00,,,0.00,0,Wunderground v.1.15,2013-09-04 19:32:00,
2013-09-04 12:42:00,76.8,51.3,30.01,ENE,74,0.0,12.0,41,0.00,,,0.00,0,Wunderground v.1.15,2013-09-04 19:42:00,
2013-09-04 12:52:00,77.1,53.5,30.00,North,0,1.0,12.0,44,0.00,,,0.00,0,Wunderground v.1.15,2013-09-04 19:52:00,
2013-09-04 13:02:00,77.1,53.5,30.00,NNE,14,7.0,12.0,44,0.00,,,0.00,0,Wunderground v.1.15,2013-09-04 20:02:00,
2013-09-04 13:07:00,76.8,53.8,30.00,North,0,3.0,12.0,45,0.00,,,0.00,0,Wunderground v.1.15,2013-09-04 20:07:00,
2013-09-04 13:12:00,77.2,53.6,30.00,North,0,6.0,11.0,44,0.00,,,0.00,0,Wunderground v.1.15,2013-09-04 20:12:00,
2013-09-04 13:22:00,77.1,53.5,30.00,North,0,3.0,11.0,44,0.00,,,0.00,0,Wunderground v.1.15,2013-09-04 20:22:00,
2013-09-04 13:32:00,77.2,53.6,30.00,NE,44,3.0,11.0,44,0.00,,,0.00,0,Wunderground v.1.15,2013-09-04 20:32:00,
2013-09-04 13:42:00,78.5,54.1,30.00,North,3,11.0,13.0,43,0.00,,,0.00,0,Wunderground v.1.15,2013-09-04 20:42:00,
2013-09-04 13:52:00,78.7,53.7,30.00,North,0,2.0,13.0,42,0.00,,,0.00,0,Wunderground v.1.15,2013-09-04 20:52:00,
2013-09-04 14:02:00,78.4,55.3,30.00,North,7,8.0,13.0,45,0.00,,,0.00,0,Wunderground v.1.15,2013-09-04 21:02:00,
2013-09-04 14:12:00,78.8,56.3,30.00,North,3,12.0,15.0,46,0.00,,,0.00,0,Wunderground v.1.15,2013-09-04 21:12:00,
2013-09-04 14:22:00,77.4,56.2,29.99,NNW,330,19.0,19.0,48,0.00,,,0.00,0,Wunderground v.1.15,2013-09-04 21:22:00,
2013-09-04 14:32:00,77.9,56.6,30.00,NNW,341,18.0,18.0,48,0.00,,,0.00,0,Wunderground v.1.15,2013-09-04 21:32:00,
2013-09-04 14:42:00,77.3,56.1,30.00,NNW,341,8.0,20.0,48,0.00,,,0.00,0,Wunderground v.1.15,2013-09-04 21:42:00,
2013-09-04 14:52:00,77.8,56.0,30.00,WSW,254,4.0,20.0,47,0.00,,,0.00,0,Wunderground v.1.15,2013-09-04 21:52:00,
2013-09-04 15:02:00,77.2,55.4,29.99,NNE,17,2.0,20.0,47,0.00,,,0.00,0,Wunderground v.1.15,2013-09-04 22:02:00,
2013-09-04 15:07:00,77.7,55.3,29.99,North,349,4.0,21.0,46,0.00,,,0.00,0,Wunderground v.1.15,2013-09-04 22:07:00,
2013-09-04 15:12:00,77.4,55.0,29.99,NNW,342,15.0,21.0,46,0.00,,,0.00,0,Wunderground v.1.15,2013-09-04 22:12:00,
2013-09-04 15:22:00,77.1,54.7,29.99,North,5,12.0,21.0,46,0.00,,,0.00,0,Wunderground v.1.15,2013-09-04 22:22:00,
2013-09-04 15:32:00,77.7,55.3,29.98,NNW,333,17.0,21.0,46,0.00,,,0.00,0,Wunderground v.1.15,2013-09-04 22:32:00,
2013-09-04 15:42:00,77.1,54.7,29.98,North,355,13.0,20.0,46,0.00,,,0.00,0,Wunderground v.1.15,2013-09-04 22:42:00,
2013-09-04 15:52:00,76.7,55.5,29.98,NNW,327,19.0,20.0,48,0.00,,,0.00,0,Wunderground v.1.15,2013-09-04 22:52:00,
2013-09-04 16:02:00,75.6,55.1,29.98,WNW,299,14.0,20.0,49,0.00,,,0.00,0,Wunderground v.1.15,2013-09-04 23:02:00,
2013-09-04 16:07:00,75.1,55.2,29.98,NW,305,10.0,25.0,50,0.00,,,0.00,0,Wunderground v.1.15,2013-09-04 23:07:00,
2013-09-04 16:12:00,75.3,55.4,29.98,WNW,290,9.0,25.0,50,0.00,,,0.00,0,Wunderground v.1.15,2013-09-04 23:12:00,
2013-09-04 16:22:00,73.9,55.2,29.98,WNW,294,14.0,25.0,52,0.00,,,0.00,0,Wunderground v.1.15,2013-09-04 23:22:00,
2013-09-04 16:32:00,73.4,55.7,29.98,WNW,293,6.0,25.0,54,0.00,,,0.00,0,Wunderground v.1.15,2013-09-04 23:32:00,
2013-09-04 16:42:00,73.1,56.0,29.98,NNW,338,5.0,20.0,55,0.00,,,0.00,0,Wunderground v.1.15,2013-09-04 23:42:00,
2013-09-04 16:52:00,72.6,56.5,29.98,NW,318,12.0,20.0,57,0.00,,,0.00,0,Wunderground v.1.15,2013-09-04 23:52:00,
2013-09-04 17:02:00,72.4,56.8,29.97,NW,311,8.0,20.0,58,0.00,,,0.00,0,Wunderground v.1.15,2013-09-05 00:02:00,
2013-09-04 17:07:00,72.1,56.5,29.98,SW,230,8.0,22.0,58,0.00,,,0.00,0,Wunderground v.1.15,2013-09-05 00:07:00,
2013-09-04 17:12:00,72.0,56.9,29.98,NNW,347,5.0,22.0,59,0.00,,,0.00,0,Wunderground v.1.15,2013-09-05 00:12:00,
2013-09-04 17:22:00,72.0,56.9,29.98,North,352,9.0,22.0,59,0.00,,,0.00,0,Wunderground v.1.15,2013-09-05 00:22:00,
2013-09-04 17:32:00,71.2,57.1,29.98,NW,311,6.0,22.0,61,0.00,,,0.00,0,Wunderground v.1.15,2013-09-05 00:32:00,
2013-09-04 17:42:00,70.3,57.5,29.97,North,356,5.0,21.0,64,0.00,,,0.00,0,Wunderground v.1.15,2013-09-05 00:42:00,
2013-09-04 17:52:00,69.5,57.6,29.98,West,264,9.0,21.0,66,0.00,,,0.00,0,Wunderground v.1.15,2013-09-05 00:52:00,
2013-09-04 18:02:00,68.7,57.3,29.98,NW,326,10.0,21.0,67,0.00,,,0.00,0,Wunderground v.1.15,2013-09-05 01:02:00,
2013-09-04 18:12:00,68.3,57.3,29.98,ENE,59,7.0,22.0,68,0.00,,,0.00,0,Wunderground v.1.15,2013-09-05 01:12:00,
2013-09-04 18:22:00,68.1,56.7,29.98,NNW,331,8.0,22.0,67,0.00,,,0.00,0,Wunderground v.1.15,2013-09-05 01:22:00,
2013-09-04 18:32:00,67.8,56.4,29.98,NNW,337,5.0,22.0,67,0.00,,,0.00,0,Wunderground v.1.15,2013-09-05 01:32:00,
2013-09-04 18:42:00,67.3,56.8,29.98,NW,319,6.0,23.0,69,0.00,,,0.00,0,Wunderground v.1.15,2013-09-05 01:42:00,
2013-09-04 18:52:00,66.7,56.2,29.97,SW,227,5.0,23.0,69,0.00,,,0.00,0,Wunderground v.1.15,2013-09-05 01:52:00,
2013-09-04 19:02:00,66.2,56.1,29.97,NW,315,9.0,23.0,70,0.00,,,0.00,0,Wunderground v.1.15,2013-09-05 02:02:00,
2013-09-04 19:07:00,66.2,56.1,29.97,NNW,329,12.0,23.0,70,0.00,,,0.00,0,Wunderground v.1.15,2013-09-05 02:07:00,
2013-09-04 19:17:00,65.8,55.3,29.97,WSW,238,4.0,18.0,69,0.00,,,0.00,0,Wunderground v.1.15,2013-09-05 02:17:00,
2013-09-04 19:22:00,65.5,55.5,29.97,West,276,5.0,18.0,70,0.00,,,0.00,0,Wunderground v.1.15,2013-09-05 02:22:00,
2013-09-04 19:32:00,65.2,55.2,29.98,NW,306,3.0,18.0,70,0.00,,,0.00,0,Wunderground v.1.15,2013-09-05 02:32:00,
2013-09-04 19:42:00,65.1,55.1,29.98,West,279,5.0,18.0,70,0.00,,,0.00,0,Wunderground v.1.15,2013-09-05 02:42:00,
2013-09-04 19:52:00,65.0,55.4,29.98,WSW,254,4.0,16.0,71,0.00,,,0.00,0,Wunderground v.1.15,2013-09-05 02:52:00,
2013-09-04 20:02:00,64.8,55.2,29.99,NNW,332,5.0,16.0,71,0.00,,,0.00,0,Wunderground v.1.15,2013-09-05 03:02:00,
2013-09-04 20:07:00,64.6,55.4,29.99,North,356,7.0,19.0,72,0.00,,,0.00,0,Wunderground v.1.15,2013-09-05 03:07:00,
2013-09-04 20:17:00,64.1,55.6,30.00,NW,325,11.0,19.0,74,0.00,,,0.00,0,Wunderground v.1.15,2013-09-05 03:17:00,
2013-09-04 20:22:00,63.8,55.7,30.00,NNW,335,4.0,19.0,75,0.00,,,0.00,0,Wunderground v.1.15,2013-09-05 03:22:00,
2013-09-04 20:32:00,63.3,56.0,30.00,SW,231,7.0,19.0,77,0.00,,,0.00,0,Wunderground v.1.15,2013-09-05 03:32:00,
2013-09-04 20:42:00,63.0,56.0,30.00,NNW,338,8.0,16.0,78,0.00,,,0.00,0,Wunderground v.1.15,2013-09-05 03:42:00,
2013-09-04 20:52:00,62.7,56.1,30.00,WSW,250,6.0,16.0,79,0.00,,,0.00,0,Wunderground v.1.15,2013-09-05 03:52:00,
2013-09-04 21:02:00,62.5,56.2,30.01,NW,322,6.0,16.0,80,0.00,,,0.00,0,Wunderground v.1.15,2013-09-05 04:02:00,
2013-09-04 21:12:00,62.4,56.1,30.00,NW,321,10.0,18.0,80,0.00,,,0.00,0,Wunderground v.1.15,2013-09-05 04:12:00,
2013-09-04 21:16:00,62.3,56.0,30.01,NNW,331,10.0,18.0,80,0.00,,,0.00,0,Wunderground v.1.15,2013-09-05 04:16:00,
2013-09-04 21:22:00,62.2,56.3,30.01,WSW,246,4.0,18.0,81,0.00,,,0.00,0,Wunderground v.1.15,2013-09-05 04:22:00,
2013-09-04 21:32:00,62.1,56.2,30.00,NNW,344,5.0,18.0,81,0.00,,,0.00,0,Wunderground v.1.15,2013-09-05 04:32:00,
2013-09-04 21:37:00,62.1,56.2,30.00,West,264,5.0,18.0,81,0.00,,,0.00,0,Wunderground v.1.15,2013-09-05 04:37:00,
2013-09-04 21:42:00,62.0,56.4,30.01,NW,311,4.0,14.0,82,0.00,,,0.00,0,Wunderground v.1.15,2013-09-05 04:42:00,
2013-09-04 21:52:00,62.0,56.4,30.00,North,353,8.0,14.0,82,0.00,,,0.00,0,Wunderground v.1.15,2013-09-05 04:52:00,
2013-09-04 22:02:00,61.9,56.3,30.00,North,1,3.0,14.0,82,0.00,,,0.00,0,Wunderground v.1.15,2013-09-05 05:02:00,
2013-09-04 22:12:00,61.9,56.3,30.00,NNW,344,7.0,14.0,82,0.00,,,0.00,0,Wunderground v.1.15,2013-09-05 05:12:00,
2013-09-04 22:22:00,62.0,56.4,30.00,WNW,282,7.0,14.0,82,0.00,,,0.00,0,Wunderground v.1.15,2013-09-05 05:22:00,
2013-09-04 22:32:00,62.0,56.4,30.01,West,264,7.0,14.0,82,0.00,,,0.00,0,Wunderground v.1.15,2013-09-05 05:32:00,
2013-09-04 22:42:00,61.7,56.1,30.01,North,4,6.0,17.0,82,0.00,,,0.00,0,Wunderground v.1.15,2013-09-05 05:42:00,
2013-09-04 22:52:00,61.5,56.3,30.01,South,173,2.0,17.0,83,0.00,,,0.00,0,Wunderground v.1.15,2013-09-05 05:52:00,
2013-09-04 23:02:00,61.5,56.3,30.00,NNW,346,15.0,17.0,83,0.00,,,0.00,0,Wunderground v.1.15,2013-09-05 06:02:00,
2013-09-04 23:07:00,61.4,56.5,30.00,NNW,346,3.0,18.0,84,0.00,,,0.00,0,Wunderground v.1.15,2013-09-05 06:07:00,
2013-09-04 23:12:00,61.4,56.5,30.00,North,0,7.0,18.0,84,0.00,,,0.00,0,Wunderground v.1.15,2013-09-05 06:12:00,
2013-09-04 23:22:00,61.3,56.4,30.00,NNW,347,5.0,18.0,84,0.00,,,0.00,0,Wunderground v.1.15,2013-09-05 06:22:00,
2013-09-04 23:32:00,61.1,56.2,30.00,WSW,242,5.0,18.0,84,0.00,,,0.00,0,Wunderground v.1.15,2013-09-05 06:32:00,
2013-09-04 23:42:00,61.1,56.2,30.00,West,269,2.0,14.0,84,0.00,,,0.00,0,Wunderground v.1.15,2013-09-05 06:42:00,
2013-09-04 23:52:00,61.0,56.1,30.00,NNW,337,4.0,14.0,84,0.00,,,0.00,0,Wunderground v.1.15,2013-09-05 06:52:00,